Terminal Aerodrome Forecast
Issued by NWS

Home | Current Version | Previous Version | Text Only | Print | Product List | Glossary On
Versions: 1 2 3 4 5 6 7 8 9 10 11 12 13 14 15 16 17
000
FTUS46 KMTR 021737
TAFOAK
TAF
KOAK 021737Z 0218/0324 27008KT P6SM OVC013
     FM022000 27015KT P6SM FEW013
     FM030300 27010KT P6SM BKN012
     FM031000 25008KT P6SM OVC012
     FM031900 28012KT P6SM FEW013 SCT250=

USA.gov is the U.S. government's official web portal to all federal, state and local government web resources and services.